Weather at Bahnsen Seaplane Base

Public forecast

Using degrees Fahrenheit for public forecast. Weather courtesy of forecast.io.

Closest aviation weather report (METAR) to Bahnsen Seaplane Base

Closest report is Faribault Municipal Airport-Liz Wall Strohfus Field, 5.4 nm (9.9 km) S. Retrieved 2021/07/28 00:35 UTC (15 minutes ago):

KFBL 280035Z AUTO 00000KT 10SM CLR 32/25 A2995 RMK AO2

Closest aviation forecast (TAF) to Bahnsen Seaplane Base

Forecast is more than 12 hours old.

Closest forecast is Airlake Airport, 13.4 nm (24.9 km) NNE. Retrieved 2018/02/05 00:21 UTC (3 years ago):

TAF KLVN 052320Z 0600/0624 27006KT P6SM FEW020 FM060200 31009KT P6SM FEW250 FM061700 22004KT P6SM FEW200 FM062200 22004KT P6SM OVC100 AMD NOT SKED